Time;durP1;ratioP1;P1;durP2;ratioP2;P2;SDS_P1;SDS_P2;PMS_P1;PMS_P2;Temp;Humidity;BMP_temperature;BMP_pressure;BME280_temperature;BME280_humidity;BME280_pressure;Samples;Min_cycle;Max_cycle;Signal;HPM_P1;HPM_P2
2023/03/14 00:01:44;;;;;;;5.90;2.00;;;;;;;;;;5093648;28;20224;-65
2023/03/14 00:04:10;;;;;;;4.43;1.70;;;;;;;;;;5093826;28;20601;-64
2023/03/14 00:06:35;;;;;;;6.03;1.90;;;;;;;;;;5093642;28;20198;-65
2023/03/14 00:09:00;;;;;;;5.13;1.92;;;;;;;;;;5093862;28;20205;-63
2023/03/14 00:11:26;;;;;;;6.90;2.30;;;;;;;;;;5094282;28;20232;-65
2023/03/14 00:13:51;;;;;;;5.88;2.00;;;;;;;;;;5093643;28;20205;-66
2023/03/14 00:16:16;;;;;;;4.97;1.80;;;;;;;;;;5093622;28;20243;-66
2023/03/14 00:18:42;;;;;;;5.10;1.60;;;;;;;;;;5093949;28;20232;-65
2023/03/14 00:21:07;;;;;;;4.72;1.70;;;;;;;;;;5092555;28;20225;-64
2023/03/14 00:23:33;;;;;;;4.32;1.60;;;;;;;;;;5093885;28;20753;-65
2023/03/14 00:25:59;;;;;;;4.75;1.70;;;;;;;;;;5093764;28;20201;-65
2023/03/14 00:28:25;;;;;;;3.97;1.60;;;;;;;;;;5092613;28;20293;-64
2023/03/14 00:30:50;;;;;;;6.45;1.70;;;;;;;;;;5093454;28;20309;-65
2023/03/14 00:33:15;;;;;;;4.75;1.60;;;;;;;;;;5093379;28;20704;-65
2023/03/14 00:35:40;;;;;;;6.13;1.98;;;;;;;;;;5093062;28;20202;-65
2023/03/14 00:38:06;;;;;;;4.72;1.50;;;;;;;;;;5093104;28;20205;-65
2023/03/14 00:40:31;;;;;;;4.90;1.75;;;;;;;;;;5093546;28;20287;-65
2023/03/14 00:42:56;;;;;;;6.55;1.73;;;;;;;;;;5092908;28;20673;-65
2023/03/14 00:45:21;;;;;;;5.13;1.77;;;;;;;;;;5092924;28;20209;-65
2023/03/14 00:47:47;;;;;;;4.70;1.67;;;;;;;;;;5093133;28;20206;-65
2023/03/14 00:50:12;;;;;;;6.10;1.73;;;;;;;;;;5091814;28;20296;-65
2023/03/14 00:52:37;;;;;;;5.40;1.77;;;;;;;;;;5093236;28;20664;-65
2023/03/14 00:55:03;;;;;;;5.10;1.77;;;;;;;;;;5092874;28;20279;-65
2023/03/14 00:57:28;;;;;;;4.47;1.42;;;;;;;;;;5092449;28;20237;-65
2023/03/14 00:59:54;;;;;;;5.07;1.70;;;;;;;;;;5093298;28;20210;-63
2023/03/14 01:02:19;;;;;;;5.60;1.88;;;;;;;;;;5083149;28;20685;-63
2023/03/14 01:04:46;;;;;;;4.45;1.60;;;;;;;;;;5046857;28;20301;-64
2023/03/14 01:07:12;;;;;;;4.18;1.60;;;;;;;;;;5055358;28;20210;-64
2023/03/14 01:09:37;;;;;;;5.47;1.80;;;;;;;;;;5055954;28;20218;-64
2023/03/14 01:12:02;;;;;;;5.95;2.05;;;;;;;;;;5070532;28;20767;-63
2023/03/14 01:14:28;;;;;;;4.25;1.40;;;;;;;;;;5082453;28;20254;-64
2023/03/14 01:16:53;;;;;;;5.43;1.45;;;;;;;;;;5082202;28;21067;-64
2023/03/14 01:19:18;;;;;;;6.38;1.60;;;;;;;;;;5071301;28;20230;-64
2023/03/14 01:21:43;;;;;;;4.07;1.50;;;;;;;;;;5082932;28;20224;-64
2023/03/14 01:24:10;;;;;;;7.22;2.10;;;;;;;;;;5081458;28;20214;-64
2023/03/14 01:26:35;;;;;;;3.42;1.25;;;;;;;;;;5064517;28;20288;-64
2023/03/14 01:29:00;;;;;;;6.20;1.67;;;;;;;;;;5078092;28;20205;-64
2023/03/14 01:31:25;;;;;;;6.57;1.58;;;;;;;;;;5073588;28;20278;-64
2023/03/14 01:33:51;;;;;;;5.88;1.48;;;;;;;;;;5075148;28;20700;-64
2023/03/14 01:36:16;;;;;;;5.53;1.40;;;;;;;;;;5074437;28;20238;-63
2023/03/14 01:38:41;;;;;;;4.25;1.30;;;;;;;;;;5062014;28;20213;-64
2023/03/14 01:41:07;;;;;;;5.18;1.60;;;;;;;;;;5061432;28;20210;-63
2023/03/14 01:43:32;;;;;;;5.80;1.50;;;;;;;;;;5062597;28;20219;-64
2023/03/14 01:45:58;;;;;;;4.35;1.40;;;;;;;;;;5061537;28;20271;-64
2023/03/14 01:48:24;;;;;;;5.78;1.67;;;;;;;;;;5061957;28;20248;-64
2023/03/14 01:50:49;;;;;;;4.50;1.30;;;;;;;;;;5059873;28;20214;-64
2023/03/14 01:53:15;;;;;;;5.85;1.70;;;;;;;;;;5053795;28;20597;-64
2023/03/14 01:55:40;;;;;;;5.40;1.73;;;;;;;;;;5056212;28;20825;-64
2023/03/14 01:58:05;;;;;;;7.82;1.70;;;;;;;;;;5058297;28;20317;-63
2023/03/14 02:00:31;;;;;;;3.50;1.50;;;;;;;;;;5081537;28;20206;-64
2023/03/14 02:02:58;;;;;;;7.18;1.80;;;;;;;;;;5083549;28;20214;-64
2023/03/14 02:05:32;;;;;;;6.68;1.58;;;;;;;;;;5072066;28;20210;-64
2023/03/14 02:07:58;;;;;;;6.45;1.90;;;;;;;;;;5091022;28;20286;-65
2023/03/14 02:10:24;;;;;;;4.35;1.40;;;;;;;;;;5086332;28;20225;-65
2023/03/14 02:12:50;;;;;;;5.78;1.40;;;;;;;;;;5053355;28;20206;-65
2023/03/14 02:15:16;;;;;;;6.78;1.48;;;;;;;;;;5052408;28;20229;-64
2023/03/14 02:17:41;;;;;;;6.22;1.73;;;;;;;;;;5073713;28;20234;-65
2023/03/14 02:20:08;;;;;;;5.80;1.52;;;;;;;;;;5090963;28;20224;-64
2023/03/14 02:22:34;;;;;;;6.70;1.75;;;;;;;;;;5091514;28;20293;-64
2023/03/14 02:24:59;;;;;;;7.93;2.22;;;;;;;;;;5056769;28;20285;-65
2023/03/14 02:27:24;;;;;;;7.18;1.80;;;;;;;;;;5090448;28;20237;-65
2023/03/14 02:29:51;;;;;;;11.18;2.08;;;;;;;;;;5073327;28;20313;-65
2023/03/14 02:32:17;;;;;;;10.43;2.45;;;;;;;;;;5072913;28;20209;-65
2023/03/14 02:34:42;;;;;;;7.68;2.40;;;;;;;;;;5090508;28;20205;-65
2023/03/14 02:37:07;;;;;;;9.52;2.50;;;;;;;;;;5072785;28;20343;-65
2023/03/14 02:39:39;;;;;;;8.93;2.30;;;;;;;;;;5091147;28;20218;-65
2023/03/14 02:42:05;;;;;;;9.43;2.20;;;;;;;;;;5090068;28;20216;-64
2023/03/14 02:44:30;;;;;;;11.25;2.42;;;;;;;;;;5091142;28;20568;-64
2023/03/14 02:46:55;;;;;;;9.98;2.83;;;;;;;;;;5091179;28;20573;-64
2023/03/14 02:49:20;;;;;;;9.35;2.00;;;;;;;;;;5089598;28;20214;-64
2023/03/14 02:51:46;;;;;;;9.80;2.35;;;;;;;;;;5072930;28;20221;-64
2023/03/14 02:54:11;;;;;;;10.00;1.95;;;;;;;;;;5072389;28;20732;-64
2023/03/14 02:56:37;;;;;;;9.52;2.00;;;;;;;;;;5090370;28;20213;-64
2023/03/14 02:59:03;;;;;;;9.38;2.00;;;;;;;;;;5090434;28;20266;-63
2023/03/14 03:01:28;;;;;;;8.85;1.83;;;;;;;;;;5090982;28;20218;-63
2023/03/14 03:03:53;;;;;;;7.85;1.90;;;;;;;;;;5089866;28;20205;-64
2023/03/14 03:06:19;;;;;;;8.75;1.70;;;;;;;;;;5089985;28;20300;-63
2023/03/14 03:08:44;;;;;;;8.25;1.83;;;;;;;;;;5090386;28;20210;-63
2023/03/14 03:11:10;;;;;;;8.52;2.60;;;;;;;;;;5089272;28;20911;-63
2023/03/14 03:13:35;;;;;;;6.90;1.48;;;;;;;;;;5089578;28;20297;-63
2023/03/14 03:16:00;;;;;;;8.77;1.83;;;;;;;;;;5090217;28;20202;-62
2023/03/14 03:18:26;;;;;;;8.70;1.95;;;;;;;;;;5089573;28;20290;-63
2023/03/14 03:20:51;;;;;;;9.27;1.63;;;;;;;;;;5090487;28;20271;-64
2023/03/14 03:23:16;;;;;;;8.18;1.95;;;;;;;;;;5089663;28;20305;-64
2023/03/14 03:25:42;;;;;;;6.57;1.70;;;;;;;;;;5089288;28;20237;-63
2023/03/14 03:28:07;;;;;;;9.45;2.42;;;;;;;;;;5089983;28;20233;-63
2023/03/14 03:30:37;;;;;;;7.47;1.85;;;;;;;;;;5089466;28;20610;-63
2023/03/14 03:33:02;;;;;;;10.30;1.90;;;;;;;;;;5089987;28;20696;-63
2023/03/14 03:35:27;;;;;;;10.75;2.30;;;;;;;;;;5090239;28;20202;-63
2023/03/14 03:37:53;;;;;;;10.95;2.40;;;;;;;;;;5089624;28;20210;-63
2023/03/14 03:40:18;;;;;;;9.07;2.33;;;;;;;;;;5089602;28;20663;-63
2023/03/14 03:42:43;;;;;;;9.27;2.22;;;;;;;;;;5090378;28;20202;-63
2023/03/14 03:45:09;;;;;;;10.13;2.22;;;;;;;;;;5088971;28;20210;-63
2023/03/14 03:47:34;;;;;;;12.18;2.20;;;;;;;;;;5090247;28;20205;-63
2023/03/14 03:49:59;;;;;;;9.13;2.17;;;;;;;;;;5089988;28;20756;-63
2023/03/14 03:52:25;;;;;;;11.38;2.30;;;;;;;;;;5089009;28;20217;-63
2023/03/14 03:54:50;;;;;;;7.90;2.15;;;;;;;;;;5090128;28;20205;-63
2023/03/14 03:57:15;;;;;;;7.78;2.47;;;;;;;;;;5089774;28;20210;-63
2023/03/14 03:59:40;;;;;;;9.10;2.03;;;;;;;;;;5089358;28;20210;-63
2023/03/14 04:02:06;;;;;;;14.40;2.55;;;;;;;;;;5089690;28;20236;-63
2023/03/14 04:04:31;;;;;;;9.57;2.25;;;;;;;;;;5089959;28;20738;-63
2023/03/14 04:06:56;;;;;;;11.52;2.58;;;;;;;;;;5089366;28;20274;-63
2023/03/14 04:09:22;;;;;;;13.25;2.55;;;;;;;;;;5089389;28;20205;-63
2023/03/14 04:11:47;;;;;;;10.07;2.30;;;;;;;;;;5090177;28;20584;-63
2023/03/14 04:14:12;;;;;;;8.27;2.20;;;;;;;;;;5088857;28;20705;-63
2023/03/14 04:16:38;;;;;;;19.52;3.22;;;;;;;;;;5089739;28;20570;-63
2023/03/14 04:19:03;;;;;;;13.25;2.38;;;;;;;;;;5089437;28;20602;-63
2023/03/14 04:21:28;;;;;;;12.27;2.72;;;;;;;;;;5089133;28;20217;-63
2023/03/14 04:23:54;;;;;;;12.00;3.03;;;;;;;;;;5090034;28;20263;-63
2023/03/14 04:26:19;;;;;;;10.70;2.60;;;;;;;;;;5089212;28;20197;-63
2023/03/14 04:28:44;;;;;;;13.10;2.45;;;;;;;;;;5089045;28;20270;-63
2023/03/14 04:31:10;;;;;;;11.75;2.47;;;;;;;;;;5089260;28;20222;-63
2023/03/14 04:33:37;;;;;;;10.27;2.38;;;;;;;;;;5090016;28;20205;-63
2023/03/14 04:36:02;;;;;;;10.18;2.65;;;;;;;;;;5090734;28;20221;-62
2023/03/14 04:38:27;;;;;;;12.43;2.22;;;;;;;;;;5093768;28;20213;-63
2023/03/14 04:40:52;;;;;;;12.35;2.38;;;;;;;;;;5092795;28;20256;-63
2023/03/14 04:43:18;;;;;;;9.27;2.15;;;;;;;;;;5092990;28;20210;-63
2023/03/14 04:45:43;;;;;;;10.05;2.38;;;;;;;;;;5093520;28;20665;-63
2023/03/14 04:48:09;;;;;;;10.15;2.20;;;;;;;;;;5092081;28;20206;-63
2023/03/14 04:50:34;;;;;;;13.20;2.78;;;;;;;;;;5093199;28;20217;-63
2023/03/14 04:53:00;;;;;;;8.80;2.10;;;;;;;;;;5086903;28;20328;-63
2023/03/14 04:55:25;;;;;;;7.97;1.77;;;;;;;;;;5062339;28;20210;-63
2023/03/14 04:57:50;;;;;;;9.55;2.22;;;;;;;;;;5063438;28;20621;-63
2023/03/14 05:00:18;;;;;;;10.35;2.53;;;;;;;;;;5062961;28;20382;-63
2023/03/14 05:02:43;;;;;;;10.57;2.80;;;;;;;;;;5067296;28;20218;-63
2023/03/14 05:05:08;;;;;;;12.55;2.17;;;;;;;;;;5055865;28;20238;-63
2023/03/14 05:07:34;;;;;;;8.50;1.90;;;;;;;;;;5055418;28;20869;-63
2023/03/14 05:09:59;;;;;;;7.63;1.80;;;;;;;;;;5059084;28;20233;-63
2023/03/14 05:12:24;;;;;;;9.10;2.03;;;;;;;;;;5082374;28;20301;-63
2023/03/14 05:14:49;;;;;;;9.70;2.58;;;;;;;;;;5078625;28;20929;-63
2023/03/14 05:17:15;;;;;;;10.13;1.70;;;;;;;;;;5061836;28;20508;-63
2023/03/14 05:19:40;;;;;;;9.60;2.00;;;;;;;;;;5063135;28;20672;-63
2023/03/14 05:22:06;;;;;;;10.13;1.90;;;;;;;;;;5062218;28;20222;-63
2023/03/14 05:24:31;;;;;;;5.60;1.73;;;;;;;;;;5062481;28;20214;-63
2023/03/14 05:26:56;;;;;;;8.93;2.10;;;;;;;;;;5059729;28;20210;-64
2023/03/14 05:29:22;;;;;;;9.43;2.05;;;;;;;;;;5074901;28;20241;-63
2023/03/14 05:31:47;;;;;;;7.95;1.50;;;;;;;;;;5074420;28;20795;-63
2023/03/14 05:34:13;;;;;;;8.55;2.25;;;;;;;;;;5080340;28;20224;-63
2023/03/14 05:36:38;;;;;;;8.50;1.80;;;;;;;;;;5082355;28;20198;-64
2023/03/14 05:39:03;;;;;;;7.70;1.70;;;;;;;;;;5081659;28;20242;-63
2023/03/14 05:41:29;;;;;;;11.52;2.13;;;;;;;;;;5081966;28;20206;-64
2023/03/14 05:43:54;;;;;;;6.43;1.60;;;;;;;;;;5082501;28;20969;-64
2023/03/14 05:46:19;;;;;;;10.38;2.10;;;;;;;;;;5080673;28;20301;-64
2023/03/14 05:48:45;;;;;;;8.65;1.85;;;;;;;;;;5066421;28;20293;-64
2023/03/14 05:51:10;;;;;;;5.95;1.73;;;;;;;;;;5053962;28;20229;-64
2023/03/14 05:53:35;;;;;;;7.03;1.83;;;;;;;;;;5055005;28;20214;-64
2023/03/14 05:56:01;;;;;;;7.90;1.80;;;;;;;;;;5057268;28;20213;-63
2023/03/14 05:58:26;;;;;;;5.40;1.50;;;;;;;;;;5061365;28;20207;-64
2023/03/14 06:00:52;;;;;;;8.77;1.95;;;;;;;;;;5062739;28;20673;-64
2023/03/14 06:03:17;;;;;;;16.20;5.72;;;;;;;;;;5081236;28;20234;-64
2023/03/14 06:05:42;;;;;;;22.98;14.65;;;;;;;;;;5081420;28;20213;-64
2023/03/14 06:08:08;;;;;;;8.60;2.05;;;;;;;;;;5081056;28;20708;-64
2023/03/14 06:10:34;;;;;;;7.35;2.20;;;;;;;;;;5081428;28;20218;-66
2023/03/14 06:12:59;;;;;;;5.97;1.92;;;;;;;;;;5066594;28;20207;-67
2023/03/14 06:15:25;;;;;;;5.55;1.55;;;;;;;;;;5054246;28;20210;-63
2023/03/14 06:17:50;;;;;;;6.28;1.80;;;;;;;;;;5054987;28;20226;-64
2023/03/14 06:20:15;;;;;;;6.68;2.40;;;;;;;;;;5060574;28;20393;-65
2023/03/14 06:22:41;;;;;;;6.78;2.00;;;;;;;;;;5061568;28;20221;-65
2023/03/14 06:25:07;;;;;;;7.90;1.80;;;;;;;;;;5061612;28;20279;-65
2023/03/14 06:27:33;;;;;;;7.63;1.80;;;;;;;;;;5061422;28;20218;-66
2023/03/14 06:29:58;;;;;;;11.02;2.05;;;;;;;;;;5061191;28;20586;-66
2023/03/14 06:32:24;;;;;;;6.05;1.77;;;;;;;;;;5061279;28;20305;-66
2023/03/14 06:34:49;;;;;;;5.05;1.55;;;;;;;;;;5074918;28;20246;-65
2023/03/14 06:37:15;;;;;;;6.18;1.58;;;;;;;;;;5073452;28;20206;-65
2023/03/14 06:39:40;;;;;;;4.72;1.65;;;;;;;;;;5073403;28;20205;-65
2023/03/14 06:42:05;;;;;;;6.00;2.15;;;;;;;;;;5078271;28;20253;-65
2023/03/14 06:44:31;;;;;;;5.20;1.52;;;;;;;;;;5081171;28;20221;-65
2023/03/14 06:46:56;;;;;;;6.85;1.80;;;;;;;;;;5081061;28;20666;-65
2023/03/14 06:49:21;;;;;;;4.80;1.83;;;;;;;;;;5063148;28;20206;-65
2023/03/14 06:51:47;;;;;;;5.53;2.05;;;;;;;;;;5061185;28;20233;-66
2023/03/14 06:54:12;;;;;;;4.03;1.65;;;;;;;;;;5060599;28;20751;-65
2023/03/14 06:56:37;;;;;;;7.22;2.25;;;;;;;;;;5057299;28;20211;-65
2023/03/14 06:59:03;;;;;;;5.68;1.73;;;;;;;;;;5053001;28;20754;-64
2023/03/14 07:01:29;;;;;;;4.28;1.80;;;;;;;;;;5058714;28;20205;-65
2023/03/14 07:03:54;;;;;;;6.18;2.28;;;;;;;;;;5076346;28;20761;-63
2023/03/14 07:06:20;;;;;;;7.55;2.40;;;;;;;;;;5078932;28;20226;-64
2023/03/14 07:08:45;;;;;;;5.28;2.20;;;;;;;;;;5043140;28;20793;-64
2023/03/14 07:11:11;;;;;;;5.88;2.50;;;;;;;;;;5060128;28;20229;-63
2023/03/14 07:13:37;;;;;;;9.35;2.60;;;;;;;;;;5060611;28;20210;-63
2023/03/14 07:16:02;;;;;;;10.40;3.47;;;;;;;;;;5060235;28;20764;-62
2023/03/14 07:18:27;;;;;;;10.82;2.90;;;;;;;;;;5059863;28;20233;-62
2023/03/14 07:20:53;;;;;;;5.18;2.63;;;;;;;;;;5053953;28;20206;-64
2023/03/14 07:23:18;;;;;;;5.68;2.60;;;;;;;;;;5053223;28;20253;-64
2023/03/14 07:25:43;;;;;;;5.63;2.50;;;;;;;;;;5072960;28;20262;-64
2023/03/14 07:28:09;;;;;;;6.43;2.97;;;;;;;;;;5060135;28;20214;-63
2023/03/14 07:30:34;;;;;;;6.40;2.63;;;;;;;;;;5060024;28;20230;-63
2023/03/14 07:33:00;;;;;;;5.95;2.88;;;;;;;;;;5060395;28;20230;-63
2023/03/14 07:35:25;;;;;;;8.77;3.70;;;;;;;;;;5060336;28;20221;-65
2023/03/14 07:37:50;;;;;;;9.20;3.40;;;;;;;;;;5060034;28;20221;-65
2023/03/14 07:40:16;;;;;;;4.00;2.08;;;;;;;;;;5079332;28;20217;-65
2023/03/14 07:42:41;;;;;;;6.20;2.58;;;;;;;;;;5075221;28;20549;-64
2023/03/14 07:45:08;;;;;;;6.55;2.38;;;;;;;;;;5071663;28;20209;-64
2023/03/14 07:47:33;;;;;;;4.32;2.20;;;;;;;;;;5071415;28;20201;-64
2023/03/14 07:49:58;;;;;;;4.85;2.20;;;;;;;;;;5058332;28;20285;-63
2023/03/14 07:52:24;;;;;;;3.95;2.25;;;;;;;;;;5059411;28;20225;-64
2023/03/14 07:54:49;;;;;;;2.38;1.33;;;;;;;;;;5079419;28;20350;-69
2023/03/14 07:57:14;;;;;;;3.20;1.13;;;;;;;;;;5069499;28;20225;-69
2023/03/14 07:59:40;;;;;;;1.83;0.85;;;;;;;;;;5063161;28;20229;-70
2023/03/14 08:02:10;;;;;;;4.68;1.20;;;;;;;;;;5087239;28;20210;-70
2023/03/14 08:04:36;;;;;;;2.65;1.00;;;;;;;;;;5089766;28;20331;-70
2023/03/14 08:07:01;;;;;;;1.77;1.00;;;;;;;;;;5088901;28;20296;-70
2023/03/14 08:09:27;;;;;;;2.97;0.80;;;;;;;;;;5089776;28;20569;-70
2023/03/14 08:11:52;;;;;;;3.83;1.42;;;;;;;;;;5092553;28;20793;-70
2023/03/14 08:14:17;;;;;;;3.03;0.80;;;;;;;;;;5093507;28;20218;-70
2023/03/14 08:16:43;;;;;;;1.67;0.75;;;;;;;;;;5093697;28;20217;-69
2023/03/14 08:19:08;;;;;;;2.15;0.50;;;;;;;;;;5092680;28;20217;-69
2023/03/14 08:21:33;;;;;;;2.33;0.70;;;;;;;;;;5093954;28;20205;-69
2023/03/14 08:23:59;;;;;;;0.80;0.43;;;;;;;;;;5093947;28;20669;-69
2023/03/14 08:26:24;;;;;;;1.17;0.40;;;;;;;;;;5092161;28;20856;-69
2023/03/14 08:28:49;;;;;;;1.02;0.45;;;;;;;;;;5093721;28;20241;-69
2023/03/14 08:31:14;;;;;;;1.33;0.57;;;;;;;;;;5092733;28;20222;-63
2023/03/14 08:33:40;;;;;;;2.95;0.60;;;;;;;;;;5093158;28;20206;-63
2023/03/14 08:36:05;;;;;;;1.08;0.50;;;;;;;;;;5093195;28;20653;-63
2023/03/14 08:38:30;;;;;;;0.90;0.50;;;;;;;;;;5093630;28;20228;-64
2023/03/14 08:40:57;;;;;;;2.03;0.57;;;;;;;;;;5092238;28;20205;-64
2023/03/14 08:43:22;;;;;;;2.90;0.60;;;;;;;;;;5093172;28;20209;-64
2023/03/14 08:45:48;;;;;;;2.88;0.50;;;;;;;;;;5093575;28;20205;-64
2023/03/14 08:48:13;;;;;;;2.80;0.60;;;;;;;;;;5092155;28;20213;-64
2023/03/14 08:50:38;;;;;;;2.53;0.70;;;;;;;;;;5093367;28;20222;-64
2023/03/14 08:53:03;;;;;;;2.78;0.65;;;;;;;;;;5093029;28;20743;-63
2023/03/14 08:55:29;;;;;;;4.20;1.00;;;;;;;;;;5092602;28;20291;-64
2023/03/14 08:57:54;;;;;;;5.68;1.38;;;;;;;;;;5092967;28;20226;-64
2023/03/14 09:00:20;;;;;;;4.90;1.10;;;;;;;;;;5092789;28;20222;-63
2023/03/14 09:02:45;;;;;;;5.05;1.27;;;;;;;;;;5092110;28;20287;-64
2023/03/14 09:05:11;;;;;;;5.55;1.20;;;;;;;;;;5092622;28;20265;-63
2023/03/14 09:07:36;;;;;;;6.22;1.00;;;;;;;;;;5093251;28;20210;-64
2023/03/14 09:10:02;;;;;;;4.18;1.08;;;;;;;;;;5091526;28;20274;-63
2023/03/14 09:12:27;;;;;;;3.63;0.80;;;;;;;;;;5092430;28;20206;-64
2023/03/14 09:14:52;;;;;;;4.65;1.17;;;;;;;;;;5090692;28;20232;-64
2023/03/14 09:17:18;;;;;;;5.05;0.90;;;;;;;;;;5089064;28;20691;-63
2023/03/14 09:19:43;;;;;;;2.50;0.73;;;;;;;;;;5092900;28;20217;-65
2023/03/14 09:22:08;;;;;;;3.00;1.17;;;;;;;;;;5090739;28;20217;-63
2023/03/14 09:24:33;;;;;;;5.95;1.10;;;;;;;;;;5092502;28;20206;-64
2023/03/14 09:26:59;;;;;;;4.53;1.02;;;;;;;;;;5090010;28;20213;-64
2023/03/14 09:29:24;;;;;;;5.30;0.85;;;;;;;;;;5091339;28;20300;-64
2023/03/14 09:31:49;;;;;;;2.90;0.80;;;;;;;;;;5092503;28;20218;-64
2023/03/14 09:34:15;;;;;;;4.05;0.80;;;;;;;;;;5092132;28;20738;-63
2023/03/14 09:36:40;;;;;;;5.88;0.93;;;;;;;;;;5091818;28;20218;-64
2023/03/14 09:39:06;;;;;;;4.95;1.40;;;;;;;;;;5091750;28;20725;-63
2023/03/14 09:41:33;;;;;;;6.78;2.33;;;;;;;;;;5092165;28;20213;-64
2023/03/14 09:44:00;;;;;;;6.68;3.85;;;;;;;;;;5073670;28;20209;-64
2023/03/14 09:46:27;;;;;;;5.80;2.00;;;;;;;;;;5073854;28;20221;-64
2023/03/14 09:48:52;;;;;;;3.22;0.60;;;;;;;;;;5092132;28;20227;-64
2023/03/14 09:51:18;;;;;;;12.05;4.72;;;;;;;;;;5090809;28;20244;-63
2023/03/14 09:53:44;;;;;;;4.50;1.35;;;;;;;;;;5092206;28;20206;-63
2023/03/14 09:56:11;;;;;;;4.50;1.35;;;;;;;;;;5091431;28;20221;-63
2023/03/14 09:58:36;;;;;;;3.88;0.75;;;;;;;;;;5091116;28;20621;-63
2023/03/14 10:01:01;;;;;;;6.43;1.10;;;;;;;;;;5091532;28;20202;-63
2023/03/14 10:03:33;;;;;;;5.43;1.00;;;;;;;;;;5090964;28;20229;-63
2023/03/14 10:05:58;;;;;;;6.78;1.10;;;;;;;;;;5091207;28;20291;-64
2023/03/14 10:08:24;;;;;;;4.32;0.80;;;;;;;;;;5091439;28;20263;-63
2023/03/14 10:10:49;;;;;;;3.55;0.90;;;;;;;;;;5090388;28;20221;-63
2023/03/14 10:13:21;;;;;;;3.78;0.98;;;;;;;;;;5090239;28;20206;-63
2023/03/14 10:15:50;;;;;;;9.10;1.20;;;;;;;;;;5091843;28;20529;-64
2023/03/14 10:18:16;;;;;;;5.88;0.85;;;;;;;;;;5089888;28;20237;-63
2023/03/14 10:20:42;;;;;;;6.05;1.40;;;;;;;;;;5087323;28;20206;-63
2023/03/14 10:23:11;;;;;;;6.22;1.25;;;;;;;;;;5091133;28;20235;-63
2023/03/14 10:25:37;;;;;;;7.60;1.40;;;;;;;;;;5090688;28;20293;-63
2023/03/14 10:28:03;;;;;;;9.23;1.50;;;;;;;;;;5070806;28;20313;-62
2023/03/14 10:30:28;;;;;;;12.35;1.83;;;;;;;;;;5053433;28;20222;-64
2023/03/14 10:32:53;;;;;;;6.90;1.50;;;;;;;;;;5069826;28;20212;-64
2023/03/14 10:35:20;;;;;;;11.05;2.00;;;;;;;;;;5070612;28;20309;-63
2023/03/14 10:37:54;;;;;;;8.82;1.70;;;;;;;;;;5053410;28;20198;-64
2023/03/14 10:40:19;;;;;;;12.00;2.35;;;;;;;;;;5051926;28;20497;-63
2023/03/14 10:42:47;;;;;;;12.05;1.95;;;;;;;;;;5053174;28;20198;-63
2023/03/14 10:45:22;;;;;;;9.55;1.83;;;;;;;;;;5070323;28;20223;-63
2023/03/14 10:47:48;;;;;;;8.60;1.83;;;;;;;;;;5074157;28;20205;-64
2023/03/14 10:50:19;;;;;;;11.48;2.58;;;;;;;;;;5090418;28;20221;-64
2023/03/14 10:52:48;;;;;;;12.38;2.10;;;;;;;;;;5090854;28;20429;-63
2023/03/14 10:55:13;;;;;;;10.23;2.72;;;;;;;;;;5089506;28;20213;-62
2023/03/14 10:57:39;;;;;;;14.38;3.50;;;;;;;;;;5090761;28;20255;-62
2023/03/14 11:00:08;;;;;;;10.48;2.28;;;;;;;;;;5089784;28;20257;-63
2023/03/14 11:02:35;;;;;;;19.17;6.35;;;;;;;;;;5089556;28;20210;-63
2023/03/14 11:05:08;;;;;;;12.02;2.15;;;;;;;;;;5071805;28;20227;-61
2023/03/14 11:07:36;;;;;;;10.68;2.88;;;;;;;;;;5087630;28;20254;-62
2023/03/14 11:10:08;;;;;;;11.55;2.55;;;;;;;;;;5070857;28;20198;-62
2023/03/14 11:12:38;;;;;;;14.23;2.65;;;;;;;;;;5069520;28;20218;-62
2023/03/14 11:15:22;;;;;;;16.58;2.80;;;;;;;;;;5088924;28;20301;-63
2023/03/14 11:17:53;;;;;;;18.08;3.15;;;;;;;;;;5089335;28;20650;-63
2023/03/14 11:20:31;;;;;;;15.55;3.08;;;;;;;;;;5089937;28;20292;-63
2023/03/14 11:22:59;;;;;;;17.80;3.22;;;;;;;;;;5071735;28;20262;-63
2023/03/14 11:25:36;;;;;;;21.70;3.25;;;;;;;;;;5089870;28;20246;-63
2023/03/14 11:28:06;;;;;;;18.33;3.67;;;;;;;;;;5069989;28;20214;-63
2023/03/14 11:30:34;;;;;;;17.88;3.67;;;;;;;;;;5069473;28;20283;-64
2023/03/14 11:33:15;;;;;;;18.85;3.55;;;;;;;;;;5052306;28;20210;-63
2023/03/14 11:35:53;;;;;;;18.83;3.72;;;;;;;;;;5082550;28;20716;-63
2023/03/14 11:38:25;;;;;;;21.40;3.53;;;;;;;;;;5058597;28;20225;-63
2023/03/14 11:40:51;;;;;;;17.33;3.28;;;;;;;;;;5067186;28;20202;-63
2023/03/14 11:43:20;;;;;;;16.83;3.40;;;;;;;;;;5071121;28;20213;-62
2023/03/14 11:45:45;;;;;;;17.33;3.78;;;;;;;;;;5089318;28;20202;-63
2023/03/14 11:48:14;;;;;;;21.40;3.78;;;;;;;;;;5071515;28;20228;-63
2023/03/14 11:50:39;;;;;;;18.58;3.50;;;;;;;;;;5089209;28;20221;-63
2023/03/14 11:53:07;;;;;;;18.40;3.67;;;;;;;;;;5071514;28;20229;-62
2023/03/14 11:55:32;;;;;;;20.48;3.75;;;;;;;;;;5072359;28;20301;-63
2023/03/14 11:57:59;;;;;;;19.08;3.97;;;;;;;;;;5088258;28;20284;-63
2023/03/14 12:00:25;;;;;;;17.33;3.28;;;;;;;;;;5089391;28;20281;-63
2023/03/14 12:02:59;;;;;;;19.67;3.75;;;;;;;;;;5090135;28;20643;-63
2023/03/14 12:05:25;;;;;;;16.77;3.63;;;;;;;;;;5088850;28;20225;-63
2023/03/14 12:07:50;;;;;;;13.48;3.42;;;;;;;;;;5089872;28;20216;-63
2023/03/14 12:10:16;;;;;;;14.10;2.70;;;;;;;;;;5089287;28;20214;-63
2023/03/14 12:12:41;;;;;;;16.23;2.95;;;;;;;;;;5089318;28;20413;-63
2023/03/14 12:15:15;;;;;;;11.63;2.50;;;;;;;;;;5089415;28;20305;-62
2023/03/14 12:17:43;;;;;;;12.07;2.63;;;;;;;;;;5071589;28;20224;-62
2023/03/14 12:20:15;;;;;;;11.20;2.72;;;;;;;;;;5070787;28;20219;-63
2023/03/14 12:22:42;;;;;;;13.93;3.20;;;;;;;;;;5089942;28;20554;-62
2023/03/14 12:25:10;;;;;;;14.00;2.95;;;;;;;;;;5088567;28;20764;-62
2023/03/14 12:27:41;;;;;;;14.40;2.83;;;;;;;;;;5089793;28;20241;-62
2023/03/14 12:30:25;;;;;;;11.60;2.20;;;;;;;;;;5089125;28;20764;-62
2023/03/14 12:33:09;;;;;;;11.27;2.38;;;;;;;;;;5089215;28;20685;-62
2023/03/14 12:35:35;;;;;;;13.90;2.47;;;;;;;;;;5089301;28;20213;-62
2023/03/14 12:38:00;;;;;;;13.10;2.75;;;;;;;;;;5089077;28;20214;-62
2023/03/14 12:40:30;;;;;;;9.55;2.13;;;;;;;;;;5088887;28;20209;-62
2023/03/14 12:42:58;;;;;;;9.70;2.10;;;;;;;;;;5089806;28;20202;-62
2023/03/14 12:45:30;;;;;;;10.38;1.98;;;;;;;;;;5089263;28;20307;-62
2023/03/14 12:48:00;;;;;;;9.20;1.95;;;;;;;;;;5088944;28;20210;-62
2023/03/14 12:50:28;;;;;;;10.60;2.03;;;;;;;;;;5088905;28;20605;-62
2023/03/14 12:53:03;;;;;;;11.00;2.22;;;;;;;;;;5071394;28;20301;-62
2023/03/14 12:55:33;;;;;;;11.05;2.08;;;;;;;;;;5070750;28;20232;-62
2023/03/14 12:58:08;;;;;;;8.57;1.85;;;;;;;;;;5074968;28;20229;-62
2023/03/14 13:00:33;;;;;;;7.82;2.17;;;;;;;;;;5091938;28;20213;-63
2023/03/14 13:03:01;;;;;;;12.77;2.40;;;;;;;;;;5075120;28;20202;-62
2023/03/14 13:05:26;;;;;;;11.52;2.10;;;;;;;;;;5074720;28;20567;-62
2023/03/14 13:08:02;;;;;;;8.00;1.70;;;;;;;;;;5091875;28;20263;-62
2023/03/14 13:10:29;;;;;;;11.35;2.38;;;;;;;;;;5092510;28;20640;-62
2023/03/14 13:13:11;;;;;;;10.52;2.38;;;;;;;;;;5092948;28;20217;-62
2023/03/14 13:15:40;;;;;;;9.45;1.95;;;;;;;;;;5073606;28;20292;-62
2023/03/14 13:18:10;;;;;;;9.82;2.00;;;;;;;;;;5092049;28;20692;-62
2023/03/14 13:20:36;;;;;;;8.38;1.92;;;;;;;;;;5074301;28;20780;-62
2023/03/14 13:23:01;;;;;;;9.25;1.85;;;;;;;;;;5073177;28;20213;-62
2023/03/14 13:25:33;;;;;;;8.60;1.90;;;;;;;;;;5092651;28;20206;-62
2023/03/14 13:27:58;;;;;;;6.78;1.88;;;;;;;;;;5074571;28;20209;-62
2023/03/14 13:30:26;;;;;;;11.13;2.28;;;;;;;;;;5090979;28;20230;-62
2023/03/14 13:32:52;;;;;;;9.23;1.35;;;;;;;;;;5092647;28;20240;-62
2023/03/14 13:35:18;;;;;;;9.52;1.70;;;;;;;;;;5092127;28;20241;-62
2023/03/14 13:37:43;;;;;;;8.60;1.70;;;;;;;;;;5091293;28;20683;-62
2023/03/14 13:40:18;;;;;;;7.90;1.92;;;;;;;;;;5091768;28;20241;-62
2023/03/14 13:42:43;;;;;;;7.20;1.50;;;;;;;;;;5091793;28;20213;-62
2023/03/14 13:45:09;;;;;;;9.13;1.80;;;;;;;;;;5073818;28;20298;-62
2023/03/14 13:47:34;;;;;;;8.82;2.00;;;;;;;;;;5074085;28;20285;-62
2023/03/14 13:50:00;;;;;;;8.35;1.60;;;;;;;;;;5073334;28;20294;-62
2023/03/14 13:52:32;;;;;;;8.60;1.60;;;;;;;;;;5073574;28;20210;-62
2023/03/14 13:54:57;;;;;;;6.70;1.55;;;;;;;;;;5092321;28;20210;-62
2023/03/14 13:57:23;;;;;;;8.27;1.38;;;;;;;;;;5072966;28;20233;-62
2023/03/14 13:59:58;;;;;;;7.38;1.50;;;;;;;;;;5074031;28;20214;-62
2023/03/14 14:02:24;;;;;;;8.38;1.70;;;;;;;;;;5091609;28;20217;-62
2023/03/14 14:04:49;;;;;;;6.03;1.50;;;;;;;;;;5091355;28;20213;-62
2023/03/14 14:07:17;;;;;;;6.43;1.55;;;;;;;;;;5090595;28;20229;-63
2023/03/14 14:09:44;;;;;;;8.82;1.90;;;;;;;;;;5090755;28;20233;-62
2023/03/14 14:12:14;;;;;;;8.45;2.25;;;;;;;;;;5090668;28;20328;-62
2023/03/14 14:14:42;;;;;;;6.38;1.30;;;;;;;;;;5073761;28;20748;-62
2023/03/14 14:17:09;;;;;;;6.30;1.38;;;;;;;;;;5091077;28;20755;-62
2023/03/14 14:19:34;;;;;;;8.75;1.55;;;;;;;;;;5072626;28;20205;-62
2023/03/14 14:21:59;;;;;;;8.93;1.77;;;;;;;;;;5091394;28;20213;-62
2023/03/14 14:24:28;;;;;;;7.68;1.77;;;;;;;;;;5090994;28;20209;-62
2023/03/14 14:26:54;;;;;;;9.45;1.77;;;;;;;;;;5072216;28;20302;-62
2023/03/14 14:29:23;;;;;;;10.30;1.90;;;;;;;;;;5090778;28;20746;-62
2023/03/14 14:31:48;;;;;;;8.10;1.52;;;;;;;;;;5090777;28;20213;-62
2023/03/14 14:34:18;;;;;;;6.68;1.75;;;;;;;;;;5072713;28;20227;-62